Green Valley, Arizona
Current Conditions -  °F | °C
As of 8:53 PM on Saturday 25 Oct 2014 (Local Time) from KTUS Reporting Station
Clear Clear  
Wind Chill: 79°   Ceiling: Unl
Heat Index: 79°   Visibility: 10mi
Dew Point: 51°   Wind: 6mph
Humidity: 38%   Direction: 170°S
Pressure: 30.05"   Gusts: NA
Location:  31.91°N, 110.98°W
Report Text: KTUS 260353Z 17005KT 10SM CLR 26/11 A3005 RMK AO2 SLP133 T02610106
Loading
Personal Weather Stations






























Interactive Weather Map New forecast layout! Learn more

10-Day Weather Forecast

Advertisements
Track Severe Weather on mobile